sensor_id;sensor_type;location;lat;lon;timestamp;P1;durP1;ratioP1;P2;durP2;ratioP2
15608;SDS011;64278;45.642;13.756;2023-01-16T00:01:23;2.78;;;2.28;;
15608;SDS011;64278;45.642;13.756;2023-01-16T00:03:50;2.45;;;2.25;;
15608;SDS011;64278;45.642;13.756;2023-01-16T00:06:16;2.63;;;2.25;;
15608;SDS011;64278;45.642;13.756;2023-01-16T00:08:42;2.42;;;1.85;;
15608;SDS011;64278;45.642;13.756;2023-01-16T00:11:08;1.88;;;1.77;;
15608;SDS011;64278;45.642;13.756;2023-01-16T00:13:34;3.33;;;2.40;;
15608;SDS011;64278;45.642;13.756;2023-01-16T00:16:01;3.35;;;2.10;;
15608;SDS011;64278;45.642;13.756;2023-01-16T00:18:27;2.45;;;2.25;;
15608;SDS011;64278;45.642;13.756;2023-01-16T00:20:53;2.63;;;2.42;;
15608;SDS011;64278;45.642;13.756;2023-01-16T00:23:19;2.80;;;2.15;;
15608;SDS011;64278;45.642;13.756;2023-01-16T00:25:44;3.08;;;2.25;;
15608;SDS011;64278;45.642;13.756;2023-01-16T00:28:10;3.30;;;2.10;;
15608;SDS011;64278;45.642;13.756;2023-01-16T00:30:37;2.85;;;2.05;;
15608;SDS011;64278;45.642;13.756;2023-01-16T00:33:03;4.20;;;2.25;;
15608;SDS011;64278;45.642;13.756;2023-01-16T00:35:30;2.00;;;1.77;;
15608;SDS011;64278;45.642;13.756;2023-01-16T00:37:55;4.28;;;2.03;;
15608;SDS011;64278;45.642;13.756;2023-01-16T00:40:21;2.95;;;2.70;;
15608;SDS011;64278;45.642;13.756;2023-01-16T00:42:47;2.53;;;2.03;;
15608;SDS011;64278;45.642;13.756;2023-01-16T00:45:13;3.47;;;2.30;;
15608;SDS011;64278;45.642;13.756;2023-01-16T00:47:39;2.47;;;2.28;;
15608;SDS011;64278;45.642;13.756;2023-01-16T00:50:05;2.20;;;1.80;;
15608;SDS011;64278;45.642;13.756;2023-01-16T00:52:31;1.80;;;1.70;;
15608;SDS011;64278;45.642;13.756;2023-01-16T00:54:57;3.00;;;2.10;;
15608;SDS011;64278;45.642;13.756;2023-01-16T00:57:22;3.10;;;2.75;;
15608;SDS011;64278;45.642;13.756;2023-01-16T00:59:48;1.98;;;1.75;;
15608;SDS011;64278;45.642;13.756;2023-01-16T01:02:14;1.85;;;1.65;;
15608;SDS011;64278;45.642;13.756;2023-01-16T01:04:39;2.40;;;1.80;;
15608;SDS011;64278;45.642;13.756;2023-01-16T01:07:05;1.85;;;1.75;;
15608;SDS011;64278;45.642;13.756;2023-01-16T01:09:31;3.13;;;2.10;;
15608;SDS011;64278;45.642;13.756;2023-01-16T01:11:57;2.30;;;2.08;;
15608;SDS011;64278;45.642;13.756;2023-01-16T01:14:24;3.10;;;2.08;;
15608;SDS011;64278;45.642;13.756;2023-01-16T01:16:51;1.80;;;1.70;;
15608;SDS011;64278;45.642;13.756;2023-01-16T01:19:17;3.45;;;2.10;;
15608;SDS011;64278;45.642;13.756;2023-01-16T01:21:43;2.08;;;1.83;;
15608;SDS011;64278;45.642;13.756;2023-01-16T01:24:09;4.47;;;2.33;;
15608;SDS011;64278;45.642;13.756;2023-01-16T01:26:35;4.13;;;2.20;;
15608;SDS011;64278;45.642;13.756;2023-01-16T01:29:01;2.42;;;1.75;;
15608;SDS011;64278;45.642;13.756;2023-01-16T01:31:27;3.63;;;2.00;;
15608;SDS011;64278;45.642;13.756;2023-01-16T01:33:53;2.88;;;2.03;;
15608;SDS011;64278;45.642;13.756;2023-01-16T01:36:18;2.70;;;2.05;;
15608;SDS011;64278;45.642;13.756;2023-01-16T01:38:44;2.65;;;2.17;;
15608;SDS011;64278;45.642;13.756;2023-01-16T01:41:14;3.25;;;2.13;;
15608;SDS011;64278;45.642;13.756;2023-01-16T01:43:42;2.45;;;1.98;;
15608;SDS011;64278;45.642;13.756;2023-01-16T01:49:10;2.38;;;2.17;;
15608;SDS011;64278;45.642;13.756;2023-01-16T01:51:39;3.20;;;1.77;;
15608;SDS011;64278;45.642;13.756;2023-01-16T01:54:09;2.30;;;1.70;;
15608;SDS011;64278;45.642;13.756;2023-01-16T01:56:41;2.30;;;1.80;;
15608;SDS011;64278;45.642;13.756;2023-01-16T01:59:12;3.17;;;2.63;;
15608;SDS011;64278;45.642;13.756;2023-01-16T02:01:40;2.45;;;2.00;;
15608;SDS011;64278;45.642;13.756;2023-01-16T02:04:08;2.95;;;1.98;;
15608;SDS011;64278;45.642;13.756;2023-01-16T02:09:16;2.38;;;1.63;;
15608;SDS011;64278;45.642;13.756;2023-01-16T02:11:44;2.70;;;1.80;;
15608;SDS011;64278;45.642;13.756;2023-01-16T02:14:19;3.67;;;1.92;;
15608;SDS011;64278;45.642;13.756;2023-01-16T02:16:47;2.33;;;1.80;;
15608;SDS011;64278;45.642;13.756;2023-01-16T02:34:13;2.33;;;1.50;;
15608;SDS011;64278;45.642;13.756;2023-01-16T02:45:11;2.63;;;1.60;;
15608;SDS011;64278;45.642;13.756;2023-01-16T02:47:47;2.30;;;1.88;;
15608;SDS011;64278;45.642;13.756;2023-01-16T02:57:56;2.70;;;1.92;;
15608;SDS011;64278;45.642;13.756;2023-01-16T03:00:24;2.70;;;1.85;;
15608;SDS011;64278;45.642;13.756;2023-01-16T03:02:51;2.10;;;1.90;;
15608;SDS011;64278;45.642;13.756;2023-01-16T03:05:17;1.90;;;1.30;;
15608;SDS011;64278;45.642;13.756;2023-01-16T03:07:51;1.50;;;1.40;;
15608;SDS011;64278;45.642;13.756;2023-01-16T03:13:47;1.45;;;1.35;;
15608;SDS011;64278;45.642;13.756;2023-01-16T03:16:33;2.47;;;1.65;;
15608;SDS011;64278;45.642;13.756;2023-01-16T03:19:15;1.50;;;1.40;;
15608;SDS011;64278;45.642;13.756;2023-01-16T03:27:55;1.40;;;1.20;;
15608;SDS011;64278;45.642;13.756;2023-01-16T03:30:34;2.22;;;1.20;;
15608;SDS011;64278;45.642;13.756;2023-01-16T03:33:04;2.15;;;1.35;;
15608;SDS011;64278;45.642;13.756;2023-01-16T03:35:57;2.10;;;1.20;;
15608;SDS011;64278;45.642;13.756;2023-01-16T03:38:24;1.55;;;1.17;;
15608;SDS011;64278;45.642;13.756;2023-01-16T03:40:53;1.05;;;1.02;;
15608;SDS011;64278;45.642;13.756;2023-01-16T03:43:29;1.90;;;1.38;;
15608;SDS011;64278;45.642;13.756;2023-01-16T03:46:07;1.88;;;1.10;;
15608;SDS011;64278;45.642;13.756;2023-01-16T03:51:53;3.30;;;1.27;;
15608;SDS011;64278;45.642;13.756;2023-01-16T03:54:38;0.93;;;0.90;;
15608;SDS011;64278;45.642;13.756;2023-01-16T03:57:11;1.08;;;0.98;;
15608;SDS011;64278;45.642;13.756;2023-01-16T03:59:42;2.00;;;0.90;;
15608;SDS011;64278;45.642;13.756;2023-01-16T04:02:44;1.58;;;1.10;;
15608;SDS011;64278;45.642;13.756;2023-01-16T04:05:09;1.27;;;0.90;;
15608;SDS011;64278;45.642;13.756;2023-01-16T04:08:42;1.27;;;1.00;;
15608;SDS011;64278;45.642;13.756;2023-01-16T04:10:41;1.80;;;0.90;;
15608;SDS011;64278;45.642;13.756;2023-01-16T04:13:11;1.27;;;1.17;;
15608;SDS011;64278;45.642;13.756;2023-01-16T04:15:41;1.45;;;0.85;;
15608;SDS011;64278;45.642;13.756;2023-01-16T04:18:11;1.23;;;1.05;;
15608;SDS011;64278;45.642;13.756;2023-01-16T04:20:37;0.95;;;0.80;;
15608;SDS011;64278;45.642;13.756;2023-01-16T04:23:06;0.88;;;0.88;;
15608;SDS011;64278;45.642;13.756;2023-01-16T04:25:32;0.88;;;0.68;;
15608;SDS011;64278;45.642;13.756;2023-01-16T04:27:58;0.90;;;0.90;;
15608;SDS011;64278;45.642;13.756;2023-01-16T04:30:23;1.30;;;1.10;;
15608;SDS011;64278;45.642;13.756;2023-01-16T04:32:49;0.82;;;0.80;;
15608;SDS011;64278;45.642;13.756;2023-01-16T04:35:15;0.60;;;0.60;;
15608;SDS011;64278;45.642;13.756;2023-01-16T04:37:40;1.30;;;0.70;;
15608;SDS011;64278;45.642;13.756;2023-01-16T04:40:06;0.80;;;0.77;;
15608;SDS011;64278;45.642;13.756;2023-01-16T04:42:33;1.65;;;1.02;;
15608;SDS011;64278;45.642;13.756;2023-01-16T04:45:00;1.13;;;1.00;;
15608;SDS011;64278;45.642;13.756;2023-01-16T04:47:26;1.10;;;0.90;;
15608;SDS011;64278;45.642;13.756;2023-01-16T04:49:52;0.75;;;0.63;;
15608;SDS011;64278;45.642;13.756;2023-01-16T04:52:17;0.65;;;0.60;;
15608;SDS011;64278;45.642;13.756;2023-01-16T04:54:43;0.82;;;0.80;;
15608;SDS011;64278;45.642;13.756;2023-01-16T04:57:09;1.48;;;0.70;;
15608;SDS011;64278;45.642;13.756;2023-01-16T04:59:34;1.10;;;0.95;;
15608;SDS011;64278;45.642;13.756;2023-01-16T05:02:00;2.10;;;0.65;;
15608;SDS011;64278;45.642;13.756;2023-01-16T05:04:26;0.90;;;0.60;;
15608;SDS011;64278;45.642;13.756;2023-01-16T05:06:51;0.70;;;0.70;;
15608;SDS011;64278;45.642;13.756;2023-01-16T05:09:17;0.90;;;0.80;;
15608;SDS011;64278;45.642;13.756;2023-01-16T05:11:43;0.85;;;0.68;;
15608;SDS011;64278;45.642;13.756;2023-01-16T05:14:08;0.60;;;0.60;;
15608;SDS011;64278;45.642;13.756;2023-01-16T05:16:35;0.80;;;0.60;;
15608;SDS011;64278;45.642;13.756;2023-01-16T05:19:11;0.68;;;0.65;;
15608;SDS011;64278;45.642;13.756;2023-01-16T05:21:37;0.88;;;0.77;;
15608;SDS011;64278;45.642;13.756;2023-01-16T05:24:03;0.60;;;0.60;;
15608;SDS011;64278;45.642;13.756;2023-01-16T05:26:29;1.77;;;0.65;;
15608;SDS011;64278;45.642;13.756;2023-01-16T05:28:55;1.38;;;0.70;;
15608;SDS011;64278;45.642;13.756;2023-01-16T05:31:21;0.60;;;0.60;;
15608;SDS011;64278;45.642;13.756;2023-01-16T05:33:46;0.45;;;0.45;;
15608;SDS011;64278;45.642;13.756;2023-01-16T05:36:12;0.60;;;0.60;;
15608;SDS011;64278;45.642;13.756;2023-01-16T05:38:38;0.50;;;0.50;;
15608;SDS011;64278;45.642;13.756;2023-01-16T05:41:03;0.68;;;0.60;;
15608;SDS011;64278;45.642;13.756;2023-01-16T05:43:29;0.70;;;0.50;;
15608;SDS011;64278;45.642;13.756;2023-01-16T05:45:55;0.77;;;0.50;;
15608;SDS011;64278;45.642;13.756;2023-01-16T05:48:21;0.93;;;0.50;;
15608;SDS011;64278;45.642;13.756;2023-01-16T05:50:48;0.50;;;0.45;;
15608;SDS011;64278;45.642;13.756;2023-01-16T05:53:13;0.60;;;0.60;;
15608;SDS011;64278;45.642;13.756;2023-01-16T05:55:41;0.47;;;0.38;;
15608;SDS011;64278;45.642;13.756;2023-01-16T05:58:09;0.60;;;0.50;;
15608;SDS011;64278;45.642;13.756;2023-01-16T06:00:36;0.55;;;0.55;;
15608;SDS011;64278;45.642;13.756;2023-01-16T06:03:02;0.68;;;0.55;;
15608;SDS011;64278;45.642;13.756;2023-01-16T06:05:28;0.32;;;0.32;;
15608;SDS011;64278;45.642;13.756;2023-01-16T06:07:54;0.40;;;0.40;;
15608;SDS011;64278;45.642;13.756;2023-01-16T06:10:23;0.50;;;0.50;;
15608;SDS011;64278;45.642;13.756;2023-01-16T06:12:50;0.50;;;0.50;;
15608;SDS011;64278;45.642;13.756;2023-01-16T06:15:16;0.40;;;0.40;;
15608;SDS011;64278;45.642;13.756;2023-01-16T06:17:41;0.38;;;0.35;;
15608;SDS011;64278;45.642;13.756;2023-01-16T06:20:08;0.55;;;0.50;;
15608;SDS011;64278;45.642;13.756;2023-01-16T06:22:34;0.65;;;0.65;;
15608;SDS011;64278;45.642;13.756;2023-01-16T06:25:00;0.38;;;0.30;;
15608;SDS011;64278;45.642;13.756;2023-01-16T06:27:25;0.60;;;0.60;;
15608;SDS011;64278;45.642;13.756;2023-01-16T06:29:51;1.55;;;0.43;;
15608;SDS011;64278;45.642;13.756;2023-01-16T06:32:17;1.27;;;0.60;;
15608;SDS011;64278;45.642;13.756;2023-01-16T06:34:43;0.45;;;0.30;;
15608;SDS011;64278;45.642;13.756;2023-01-16T06:37:09;0.40;;;0.40;;
15608;SDS011;64278;45.642;13.756;2023-01-16T06:39:35;0.28;;;0.28;;
15608;SDS011;64278;45.642;13.756;2023-01-16T06:42:01;0.52;;;0.43;;
15608;SDS011;64278;45.642;13.756;2023-01-16T06:44:29;1.23;;;1.05;;
15608;SDS011;64278;45.642;13.756;2023-01-16T06:46:56;0.30;;;0.30;;
15608;SDS011;64278;45.642;13.756;2023-01-16T06:49:22;0.45;;;0.38;;
15608;SDS011;64278;45.642;13.756;2023-01-16T06:51:47;1.70;;;0.43;;
15608;SDS011;64278;45.642;13.756;2023-01-16T06:54:13;0.50;;;0.50;;
15608;SDS011;64278;45.642;13.756;2023-01-16T06:56:38;0.57;;;0.40;;
15608;SDS011;64278;45.642;13.756;2023-01-16T06:59:04;0.40;;;0.40;;
15608;SDS011;64278;45.642;13.756;2023-01-16T07:01:30;0.75;;;0.43;;
15608;SDS011;64278;45.642;13.756;2023-01-16T07:03:55;0.40;;;0.30;;
15608;SDS011;64278;45.642;13.756;2023-01-16T07:06:21;0.40;;;0.40;;
15608;SDS011;64278;45.642;13.756;2023-01-16T07:08:47;0.40;;;0.40;;
15608;SDS011;64278;45.642;13.756;2023-01-16T07:11:16;0.77;;;0.60;;
15608;SDS011;64278;45.642;13.756;2023-01-16T07:13:42;0.50;;;0.40;;
15608;SDS011;64278;45.642;13.756;2023-01-16T07:16:11;0.40;;;0.40;;
15608;SDS011;64278;45.642;13.756;2023-01-16T07:18:58;0.50;;;0.40;;
15608;SDS011;64278;45.642;13.756;2023-01-16T07:21:43;0.70;;;0.40;;
15608;SDS011;64278;45.642;13.756;2023-01-16T07:24:30;0.40;;;0.40;;
15608;SDS011;64278;45.642;13.756;2023-01-16T07:27:00;0.40;;;0.30;;
15608;SDS011;64278;45.642;13.756;2023-01-16T07:29:29;0.98;;;0.45;;
15608;SDS011;64278;45.642;13.756;2023-01-16T07:31:57;1.75;;;0.52;;
15608;SDS011;64278;45.642;13.756;2023-01-16T07:34:24;0.60;;;0.40;;
15608;SDS011;64278;45.642;13.756;2023-01-16T07:36:51;0.50;;;0.40;;
15608;SDS011;64278;45.642;13.756;2023-01-16T07:39:16;0.40;;;0.40;;
15608;SDS011;64278;45.642;13.756;2023-01-16T07:41:42;1.02;;;0.60;;
15608;SDS011;64278;45.642;13.756;2023-01-16T07:44:08;0.82;;;0.40;;
15608;SDS011;64278;45.642;13.756;2023-01-16T07:46:34;0.75;;;0.47;;
15608;SDS011;64278;45.642;13.756;2023-01-16T07:49:00;1.33;;;0.70;;
15608;SDS011;64278;45.642;13.756;2023-01-16T07:51:26;0.80;;;0.57;;
15608;SDS011;64278;45.642;13.756;2023-01-16T07:53:52;0.70;;;0.60;;
15608;SDS011;64278;45.642;13.756;2023-01-16T07:56:17;2.97;;;1.05;;
15608;SDS011;64278;45.642;13.756;2023-01-16T07:58:43;0.88;;;0.70;;
15608;SDS011;64278;45.642;13.756;2023-01-16T08:01:09;0.80;;;0.57;;
15608;SDS011;64278;45.642;13.756;2023-01-16T08:03:36;3.03;;;1.10;;
15608;SDS011;64278;45.642;13.756;2023-01-16T08:06:02;1.75;;;0.65;;
15608;SDS011;64278;45.642;13.756;2023-01-16T08:08:28;2.05;;;0.75;;
15608;SDS011;64278;45.642;13.756;2023-01-16T08:10:55;3.45;;;0.88;;
15608;SDS011;64278;45.642;13.756;2023-01-16T08:13:22;0.50;;;0.50;;
15608;SDS011;64278;45.642;13.756;2023-01-16T08:15:48;1.63;;;0.70;;
15608;SDS011;64278;45.642;13.756;2023-01-16T08:18:15;1.15;;;0.80;;
15608;SDS011;64278;45.642;13.756;2023-01-16T08:20:45;1.20;;;0.70;;
15608;SDS011;64278;45.642;13.756;2023-01-16T08:23:11;1.85;;;1.15;;
15608;SDS011;64278;45.642;13.756;2023-01-16T08:25:57;0.50;;;0.50;;
15608;SDS011;64278;45.642;13.756;2023-01-16T08:28:25;1.25;;;0.80;;
15608;SDS011;64278;45.642;13.756;2023-01-16T08:30:51;1.10;;;0.80;;
15608;SDS011;64278;45.642;13.756;2023-01-16T08:33:17;1.30;;;0.65;;
15608;SDS011;64278;45.642;13.756;2023-01-16T08:35:42;3.10;;;0.85;;
15608;SDS011;64278;45.642;13.756;2023-01-16T08:38:08;0.80;;;0.77;;
15608;SDS011;64278;45.642;13.756;2023-01-16T08:40:33;0.82;;;0.82;;
15608;SDS011;64278;45.642;13.756;2023-01-16T08:42:59;1.25;;;0.52;;
15608;SDS011;64278;45.642;13.756;2023-01-16T08:45:43;0.80;;;0.70;;
15608;SDS011;64278;45.642;13.756;2023-01-16T08:48:28;0.73;;;0.50;;
15608;SDS011;64278;45.642;13.756;2023-01-16T08:51:14;1.73;;;0.75;;
15608;SDS011;64278;45.642;13.756;2023-01-16T08:53:47;2.25;;;1.20;;
15608;SDS011;64278;45.642;13.756;2023-01-16T08:56:16;1.00;;;0.90;;
15608;SDS011;64278;45.642;13.756;2023-01-16T08:58:42;1.40;;;0.70;;
15608;SDS011;64278;45.642;13.756;2023-01-16T09:01:08;1.13;;;1.02;;
15608;SDS011;64278;45.642;13.756;2023-01-16T09:03:34;1.15;;;0.70;;
15608;SDS011;64278;45.642;13.756;2023-01-16T09:06:00;1.65;;;0.77;;
15608;SDS011;64278;45.642;13.756;2023-01-16T09:08:26;1.25;;;0.82;;
15608;SDS011;64278;45.642;13.756;2023-01-16T09:10:51;0.70;;;0.70;;
15608;SDS011;64278;45.642;13.756;2023-01-16T09:13:36;1.05;;;0.70;;
15608;SDS011;64278;45.642;13.756;2023-01-16T09:16:23;1.05;;;0.85;;
15608;SDS011;64278;45.642;13.756;2023-01-16T09:18:49;2.03;;;0.77;;
15608;SDS011;64278;45.642;13.756;2023-01-16T09:21:16;3.80;;;0.90;;
15608;SDS011;64278;45.642;13.756;2023-01-16T09:23:48;0.80;;;0.80;;
15608;SDS011;64278;45.642;13.756;2023-01-16T09:26:14;2.05;;;0.85;;
15608;SDS011;64278;45.642;13.756;2023-01-16T09:28:40;1.23;;;0.60;;
15608;SDS011;64278;45.642;13.756;2023-01-16T09:31:06;0.70;;;0.63;;
15608;SDS011;64278;45.642;13.756;2023-01-16T09:33:32;0.80;;;0.65;;
15608;SDS011;64278;45.642;13.756;2023-01-16T09:35:57;0.93;;;0.75;;
15608;SDS011;64278;45.642;13.756;2023-01-16T09:38:23;0.80;;;0.73;;
15608;SDS011;64278;45.642;13.756;2023-01-16T09:40:52;1.27;;;0.60;;
15608;SDS011;64278;45.642;13.756;2023-01-16T09:46:09;1.20;;;0.68;;
15608;SDS011;64278;45.642;13.756;2023-01-16T09:48:40;0.63;;;0.63;;
15608;SDS011;64278;45.642;13.756;2023-01-16T09:51:13;1.00;;;0.70;;
15608;SDS011;64278;45.642;13.756;2023-01-16T09:53:54;1.80;;;0.80;;
15608;SDS011;64278;45.642;13.756;2023-01-16T09:56:44;0.40;;;0.40;;
15608;SDS011;64278;45.642;13.756;2023-01-16T09:59:33;1.90;;;0.65;;
15608;SDS011;64278;45.642;13.756;2023-01-16T10:04:34;1.00;;;0.80;;
15608;SDS011;64278;45.642;13.756;2023-01-16T10:12:29;0.60;;;0.60;;
15608;SDS011;64278;45.642;13.756;2023-01-16T10:31:33;0.98;;;0.90;;
15608;SDS011;64278;45.642;13.756;2023-01-16T10:34:15;0.82;;;0.73;;
15608;SDS011;64278;45.642;13.756;2023-01-16T10:36:51;0.93;;;0.80;;
15608;SDS011;64278;45.642;13.756;2023-01-16T10:39:22;1.48;;;1.10;;
15608;SDS011;64278;45.642;13.756;2023-01-16T10:41:55;1.58;;;1.30;;
15608;SDS011;64278;45.642;13.756;2023-01-16T10:47:47;1.50;;;1.40;;
15608;SDS011;64278;45.642;13.756;2023-01-16T10:50:31;1.65;;;1.42;;
15608;SDS011;64278;45.642;13.756;2023-01-16T10:52:57;1.60;;;1.50;;
15608;SDS011;64278;45.642;13.756;2023-01-16T10:55:23;1.40;;;1.30;;
15608;SDS011;64278;45.642;13.756;2023-01-16T10:57:54;1.92;;;1.20;;
15608;SDS011;64278;45.642;13.756;2023-01-16T11:00:24;2.22;;;1.73;;
15608;SDS011;64278;45.642;13.756;2023-01-16T11:03:40;1.10;;;0.90;;
15608;SDS011;64278;45.642;13.756;2023-01-16T11:11:42;2.70;;;1.40;;
15608;SDS011;64278;45.642;13.756;2023-01-16T11:14:34;2.30;;;1.35;;
15608;SDS011;64278;45.642;13.756;2023-01-16T11:20:06;1.20;;;1.10;;
15608;SDS011;64278;45.642;13.756;2023-01-16T11:22:35;1.73;;;1.08;;
15608;SDS011;64278;45.642;13.756;2023-01-16T11:25:04;1.17;;;1.08;;
15608;SDS011;64278;45.642;13.756;2023-01-16T11:27:31;1.17;;;1.10;;
15608;SDS011;64278;45.642;13.756;2023-01-16T11:30:04;1.40;;;1.10;;
15608;SDS011;64278;45.642;13.756;2023-01-16T11:32:34;1.33;;;1.23;;
15608;SDS011;64278;45.642;13.756;2023-01-16T11:35:03;1.20;;;1.00;;
15608;SDS011;64278;45.642;13.756;2023-01-16T11:37:37;1.58;;;0.95;;
15608;SDS011;64278;45.642;13.756;2023-01-16T11:40:06;1.40;;;0.85;;
15608;SDS011;64278;45.642;13.756;2023-01-16T11:42:50;1.20;;;1.10;;
15608;SDS011;64278;45.642;13.756;2023-01-16T11:45:38;1.27;;;1.17;;
15608;SDS011;64278;45.642;13.756;2023-01-16T11:48:26;1.38;;;1.27;;
15608;SDS011;64278;45.642;13.756;2023-01-16T11:50:55;1.35;;;1.05;;
15608;SDS011;64278;45.642;13.756;2023-01-16T11:53:22;3.25;;;1.35;;
15608;SDS011;64278;45.642;13.756;2023-01-16T11:56:00;2.08;;;1.42;;
15608;SDS011;64278;45.642;13.756;2023-01-16T12:07:39;4.25;;;1.80;;
15608;SDS011;64278;45.642;13.756;2023-01-16T12:12:54;2.60;;;1.60;;
15608;SDS011;64278;45.642;13.756;2023-01-16T12:15:51;4.38;;;1.50;;
15608;SDS011;64278;45.642;13.756;2023-01-16T12:24:20;2.63;;;1.42;;
15608;SDS011;64278;45.642;13.756;2023-01-16T12:29:45;3.25;;;1.52;;
15608;SDS011;64278;45.642;13.756;2023-01-16T12:32:31;3.60;;;1.55;;
15608;SDS011;64278;45.642;13.756;2023-01-16T12:35:30;2.85;;;1.23;;
15608;SDS011;64278;45.642;13.756;2023-01-16T12:41:54;2.67;;;2.17;;
15608;SDS011;64278;45.642;13.756;2023-01-16T12:47:37;2.78;;;2.15;;
15608;SDS011;64278;45.642;13.756;2023-01-16T12:50:29;2.63;;;2.15;;
15608;SDS011;64278;45.642;13.756;2023-01-16T12:53:01;2.92;;;1.50;;
15608;SDS011;64278;45.642;13.756;2023-01-16T12:58:27;2.25;;;1.75;;
15608;SDS011;64278;45.642;13.756;2023-01-16T13:06:36;2.13;;;1.60;;
15608;SDS011;64278;45.642;13.756;2023-01-16T13:09:41;2.53;;;1.40;;
15608;SDS011;64278;45.642;13.756;2023-01-16T13:15:11;3.78;;;1.45;;
15608;SDS011;64278;45.642;13.756;2023-01-16T13:17:56;3.25;;;1.40;;
15608;SDS011;64278;45.642;13.756;2023-01-16T13:20:28;2.53;;;1.63;;
15608;SDS011;64278;45.642;13.756;2023-01-16T13:22:57;3.30;;;2.03;;
15608;SDS011;64278;45.642;13.756;2023-01-16T13:25:29;3.83;;;1.70;;
15608;SDS011;64278;45.642;13.756;2023-01-16T13:28:10;1.55;;;1.40;;
15608;SDS011;64278;45.642;13.756;2023-01-16T13:30:43;1.45;;;1.30;;
15608;SDS011;64278;45.642;13.756;2023-01-16T13:33:12;3.33;;;1.55;;
15608;SDS011;64278;45.642;13.756;2023-01-16T13:38:41;1.25;;;1.10;;
15608;SDS011;64278;45.642;13.756;2023-01-16T13:43:42;2.55;;;1.50;;
15608;SDS011;64278;45.642;13.756;2023-01-16T13:46:47;2.35;;;1.25;;
15608;SDS011;64278;45.642;13.756;2023-01-16T13:49:18;1.83;;;1.58;;
15608;SDS011;64278;45.642;13.756;2023-01-16T13:51:46;2.50;;;1.80;;
15608;SDS011;64278;45.642;13.756;2023-01-16T13:54:22;4.03;;;1.98;;
15608;SDS011;64278;45.642;13.756;2023-01-16T13:56:57;2.13;;;1.92;;
15608;SDS011;64278;45.642;13.756;2023-01-16T13:59:33;2.40;;;1.90;;
15608;SDS011;64278;45.642;13.756;2023-01-16T14:02:38;4.93;;;3.05;;
15608;SDS011;64278;45.642;13.756;2023-01-16T14:10:46;2.58;;;2.38;;
15608;SDS011;64278;45.642;13.756;2023-01-16T14:13:33;3.53;;;2.63;;
15608;SDS011;64278;45.642;13.756;2023-01-16T14:21:24;2.55;;;2.28;;
15608;SDS011;64278;45.642;13.756;2023-01-16T14:23:59;3.65;;;2.60;;
15608;SDS011;64278;45.642;13.756;2023-01-16T14:29:14;4.07;;;2.70;;
15608;SDS011;64278;45.642;13.756;2023-01-16T14:31:50;2.90;;;2.50;;
15608;SDS011;64278;45.642;13.756;2023-01-16T14:34:23;3.05;;;2.70;;
15608;SDS011;64278;45.642;13.756;2023-01-16T14:37:04;3.60;;;2.60;;
15608;SDS011;64278;45.642;13.756;2023-01-16T14:39:52;3.15;;;2.65;;
15608;SDS011;64278;45.642;13.756;2023-01-16T14:42:34;3.95;;;2.90;;
15608;SDS011;64278;45.642;13.756;2023-01-16T14:50:59;2.88;;;2.65;;
15608;SDS011;64278;45.642;13.756;2023-01-16T14:56:50;3.28;;;2.50;;
15608;SDS011;64278;45.642;13.756;2023-01-16T15:07:14;3.83;;;2.80;;
15608;SDS011;64278;45.642;13.756;2023-01-16T15:09:41;3.03;;;2.72;;
15608;SDS011;64278;45.642;13.756;2023-01-16T15:12:12;2.63;;;2.42;;
15608;SDS011;64278;45.642;13.756;2023-01-16T15:14:52;4.90;;;2.88;;
15608;SDS011;64278;45.642;13.756;2023-01-16T15:17:30;3.55;;;1.80;;
15608;SDS011;64278;45.642;13.756;2023-01-16T15:20:23;2.50;;;2.30;;
15608;SDS011;64278;45.642;13.756;2023-01-16T15:23:31;3.95;;;2.50;;
15608;SDS011;64278;45.642;13.756;2023-01-16T15:34:13;2.70;;;2.50;;
15608;SDS011;64278;45.642;13.756;2023-01-16T15:36:49;4.32;;;2.75;;
15608;SDS011;64278;45.642;13.756;2023-01-16T15:45:22;4.45;;;1.90;;
15608;SDS011;64278;45.642;13.756;2023-01-16T15:51:00;3.40;;;2.10;;
15608;SDS011;64278;45.642;13.756;2023-01-16T15:53:39;2.40;;;2.20;;
15608;SDS011;64278;45.642;13.756;2023-01-16T15:59:23;3.75;;;2.00;;
15608;SDS011;64278;45.642;13.756;2023-01-16T16:02:08;3.53;;;2.28;;
15608;SDS011;64278;45.642;13.756;2023-01-16T16:04:59;4.10;;;2.38;;
15608;SDS011;64278;45.642;13.756;2023-01-16T16:07:26;2.38;;;2.15;;
15608;SDS011;64278;45.642;13.756;2023-01-16T16:09:54;3.47;;;2.70;;
15608;SDS011;64278;45.642;13.756;2023-01-16T16:12:24;4.47;;;2.80;;
15608;SDS011;64278;45.642;13.756;2023-01-16T16:15:02;2.95;;;2.42;;
15608;SDS011;64278;45.642;13.756;2023-01-16T16:18:02;3.58;;;3.10;;
15608;SDS011;64278;45.642;13.756;2023-01-16T16:20:38;4.40;;;3.00;;
15608;SDS011;64278;45.642;13.756;2023-01-16T16:25:48;5.03;;;3.20;;
15608;SDS011;64278;45.642;13.756;2023-01-16T16:30:43;3.47;;;3.17;;
15608;SDS011;64278;45.642;13.756;2023-01-16T16:33:16;5.00;;;3.13;;
15608;SDS011;64278;45.642;13.756;2023-01-16T16:35:50;3.45;;;2.33;;
15608;SDS011;64278;45.642;13.756;2023-01-16T16:38:22;3.33;;;2.95;;
15608;SDS011;64278;45.642;13.756;2023-01-16T16:46:35;3.65;;;2.88;;
15608;SDS011;64278;45.642;13.756;2023-01-16T16:51:41;4.15;;;3.00;;
15608;SDS011;64278;45.642;13.756;2023-01-16T16:56:39;5.57;;;3.10;;
15608;SDS011;64278;45.642;13.756;2023-01-16T16:59:16;3.97;;;2.72;;
15608;SDS011;64278;45.642;13.756;2023-01-16T17:01:55;3.47;;;2.58;;
15608;SDS011;64278;45.642;13.756;2023-01-16T17:04:28;3.78;;;3.25;;
15608;SDS011;64278;45.642;13.756;2023-01-16T17:06:54;3.80;;;2.85;;
15608;SDS011;64278;45.642;13.756;2023-01-16T17:09:20;2.70;;;2.42;;
15608;SDS011;64278;45.642;13.756;2023-01-16T17:11:47;5.57;;;3.42;;
15608;SDS011;64278;45.642;13.756;2023-01-16T17:14:13;3.83;;;2.95;;
15608;SDS011;64278;45.642;13.756;2023-01-16T17:16:38;4.38;;;2.90;;
15608;SDS011;64278;45.642;13.756;2023-01-16T17:19:16;3.10;;;2.83;;
15608;SDS011;64278;45.642;13.756;2023-01-16T17:21:53;3.58;;;3.15;;
15608;SDS011;64278;45.642;13.756;2023-01-16T17:24:19;3.42;;;2.95;;
15608;SDS011;64278;45.642;13.756;2023-01-16T17:26:45;4.10;;;3.05;;
15608;SDS011;64278;45.642;13.756;2023-01-16T17:29:12;3.38;;;2.78;;
15608;SDS011;64278;45.642;13.756;2023-01-16T17:31:40;3.28;;;2.70;;
15608;SDS011;64278;45.642;13.756;2023-01-16T17:34:13;3.42;;;2.50;;
15608;SDS011;64278;45.642;13.756;2023-01-16T17:36:41;3.08;;;2.60;;
15608;SDS011;64278;45.642;13.756;2023-01-16T17:39:07;3.58;;;2.97;;
15608;SDS011;64278;45.642;13.756;2023-01-16T17:41:34;3.80;;;2.30;;
15608;SDS011;64278;45.642;13.756;2023-01-16T17:44:13;3.17;;;2.50;;
15608;SDS011;64278;45.642;13.756;2023-01-16T17:46:59;3.85;;;3.33;;
15608;SDS011;64278;45.642;13.756;2023-01-16T17:49:25;5.22;;;2.85;;
15608;SDS011;64278;45.642;13.756;2023-01-16T17:51:51;3.58;;;2.67;;
15608;SDS011;64278;45.642;13.756;2023-01-16T17:54:17;3.38;;;2.90;;
15608;SDS011;64278;45.642;13.756;2023-01-16T17:57:02;2.95;;;2.63;;
15608;SDS011;64278;45.642;13.756;2023-01-16T17:59:28;2.78;;;2.53;;
15608;SDS011;64278;45.642;13.756;2023-01-16T18:01:54;2.85;;;2.58;;
15608;SDS011;64278;45.642;13.756;2023-01-16T18:04:20;4.20;;;2.80;;
15608;SDS011;64278;45.642;13.756;2023-01-16T18:06:46;3.60;;;2.30;;
15608;SDS011;64278;45.642;13.756;2023-01-16T18:09:12;2.85;;;2.53;;
15608;SDS011;64278;45.642;13.756;2023-01-16T18:11:40;2.40;;;2.17;;
15608;SDS011;64278;45.642;13.756;2023-01-16T18:14:26;2.92;;;2.40;;
15608;SDS011;64278;45.642;13.756;2023-01-16T18:17:15;3.72;;;2.40;;